createdAt,value
2023-02-08T00:01:11.311Z,9.35
2023-02-08T00:03:39.085Z,7.85
2023-02-08T00:06:07.766Z,8.35
2023-02-08T00:08:36.719Z,9.07
2023-02-08T00:11:04.443Z,9.18
2023-02-08T00:13:32.493Z,8.15
2023-02-08T00:15:59.812Z,9.70
2023-02-08T00:18:27.275Z,8.05
2023-02-08T00:20:56.345Z,8.75
2023-02-08T00:23:24.964Z,8.52
2023-02-08T00:25:52.630Z,9.15
2023-02-08T00:28:20.732Z,11.02
2023-02-08T00:30:49.561Z,8.00
2023-02-08T00:33:16.960Z,11.40
2023-02-08T00:35:44.271Z,8.75
2023-02-08T00:38:12.377Z,9.30
2023-02-08T00:40:39.950Z,9.75
2023-02-08T00:43:07.420Z,9.90
2023-02-08T00:45:35.365Z,9.57
2023-02-08T00:48:02.676Z,8.52
2023-02-08T00:50:30.353Z,8.77
2023-02-08T00:53:00.037Z,9.55
2023-02-08T00:55:27.814Z,8.32
2023-02-08T00:57:55.367Z,8.18
2023-02-08T01:00:22.723Z,7.50
2023-02-08T01:02:49.931Z,10.15
2023-02-08T01:05:17.927Z,9.65
2023-02-08T01:07:45.212Z,10.63
2023-02-08T01:10:13.655Z,12.32
2023-02-08T01:12:41.741Z,11.38
2023-02-08T01:15:09.817Z,10.40
2023-02-08T01:17:37.952Z,9.52
2023-02-08T01:20:05.422Z,10.23
2023-02-08T01:22:32.711Z,10.00
2023-02-08T01:25:01.560Z,12.52
2023-02-08T01:27:29.974Z,15.15
2023-02-08T01:29:57.189Z,21.98
2023-02-08T01:32:24.735Z,21.83
2023-02-08T01:34:51.898Z,18.27
2023-02-08T01:37:19.168Z,16.88
2023-02-08T01:39:47.752Z,11.35
2023-02-08T01:42:16.644Z,9.65
2023-02-08T01:45:17.178Z,7.85
2023-02-08T01:47:45.673Z,9.32
2023-02-08T01:50:14.638Z,7.32
2023-02-08T01:52:44.131Z,7.28
2023-02-08T01:55:20.609Z,13.15
2023-02-08T01:57:53.314Z,20.80
2023-02-08T02:00:22.806Z,20.53
2023-02-08T02:02:54.740Z,11.63
2023-02-08T02:05:28.599Z,12.30
2023-02-08T02:07:58.083Z,8.75
2023-02-08T02:10:32.556Z,5.95
2023-02-08T02:13:07.705Z,8.57
2023-02-08T02:15:35.372Z,6.90
2023-02-08T02:18:07.074Z,8.50
2023-02-08T02:20:46.478Z,7.28
2023-02-08T02:23:47.382Z,6.28
2023-02-08T02:26:37.778Z,6.57
2023-02-08T02:29:30.719Z,8.85
2023-02-08T02:32:25.958Z,7.90
2023-02-08T02:35:16.047Z,7.75
2023-02-08T02:37:56.620Z,5.65
2023-02-08T02:40:54.271Z,7.55
2023-02-08T02:43:43.905Z,7.95
2023-02-08T02:46:41.086Z,7.18
2023-02-08T02:49:26.390Z,8.25
2023-02-08T02:52:08.828Z,7.93
2023-02-08T02:54:43.805Z,8.85
2023-02-08T02:57:16.686Z,13.13
2023-02-08T02:59:45.674Z,9.63
2023-02-08T03:02:14.347Z,10.65
2023-02-08T03:04:42.889Z,8.40
2023-02-08T03:07:19.544Z,6.78
2023-02-08T03:09:52.687Z,7.15
2023-02-08T03:13:00.722Z,8.57
2023-02-08T03:15:49.449Z,8.32
2023-02-08T03:18:25.706Z,10.27
2023-02-08T03:21:38.157Z,7.70
2023-02-08T03:24:21.800Z,9.32
2023-02-08T03:27:01.335Z,6.63
2023-02-08T03:29:34.400Z,8.73
2023-02-08T03:32:09.718Z,7.45
2023-02-08T03:34:59.839Z,6.88
2023-02-08T03:37:34.146Z,11.55
2023-02-08T03:40:10.004Z,8.23
2023-02-08T03:42:39.275Z,8.18
2023-02-08T03:45:17.250Z,6.28
2023-02-08T03:47:47.382Z,8.23
2023-02-08T03:50:18.319Z,7.22
2023-02-08T03:52:48.222Z,8.15
2023-02-08T03:55:23.924Z,13.05
2023-02-08T03:57:59.710Z,8.25
2023-02-08T04:00:31.943Z,8.45
2023-02-08T04:03:11.565Z,7.55
2023-02-08T04:05:40.036Z,6.53
2023-02-08T04:08:07.853Z,6.40
2023-02-08T04:10:35.798Z,7.20
2023-02-08T04:13:03.162Z,8.45
2023-02-08T04:15:30.822Z,7.18
2023-02-08T04:18:00.913Z,6.70
2023-02-08T04:20:28.271Z,10.85
2023-02-08T04:22:57.438Z,8.05
2023-02-08T04:25:24.852Z,6.70
2023-02-08T04:27:52.247Z,7.03
2023-02-08T04:30:19.619Z,6.38
2023-02-08T04:32:47.608Z,8.35
2023-02-08T04:35:15.056Z,6.82
2023-02-08T04:37:42.347Z,6.80
2023-02-08T04:40:10.776Z,7.22
2023-02-08T04:42:37.942Z,7.32
2023-02-08T04:45:05.505Z,8.02
2023-02-08T04:47:32.922Z,8.50
2023-02-08T04:50:00.147Z,7.10
2023-02-08T04:52:27.585Z,6.35
2023-02-08T04:54:54.901Z,7.20
2023-02-08T04:57:22.147Z,8.25
2023-02-08T04:59:49.553Z,6.93
2023-02-08T05:02:16.784Z,7.75
2023-02-08T05:04:44.031Z,8.63
2023-02-08T05:07:11.490Z,7.55
2023-02-08T05:09:38.850Z,6.47
2023-02-08T05:12:07.346Z,10.07
2023-02-08T05:14:36.232Z,5.50
2023-02-08T05:17:04.929Z,8.00
2023-02-08T05:19:32.643Z,9.65
2023-02-08T05:21:59.864Z,6.93
2023-02-08T05:24:27.676Z,7.28
2023-02-08T05:26:54.861Z,7.30
2023-02-08T05:29:22.358Z,6.43
2023-02-08T05:31:49.744Z,8.75
2023-02-08T05:34:17.258Z,6.78
2023-02-08T05:36:44.558Z,6.70
2023-02-08T05:39:11.833Z,5.90
2023-02-08T05:41:39.061Z,6.78
2023-02-08T05:44:06.773Z,9.40
2023-02-08T05:46:35.000Z,8.13
2023-02-08T05:49:05.859Z,10.55
2023-02-08T05:51:33.048Z,8.68
2023-02-08T05:54:00.464Z,6.00
2023-02-08T05:56:29.120Z,9.38
2023-02-08T05:58:56.701Z,9.10
2023-02-08T06:01:23.963Z,9.20
2023-02-08T06:03:51.111Z,9.15
2023-02-08T06:06:18.686Z,6.78
2023-02-08T06:08:46.286Z,7.88
2023-02-08T06:11:13.990Z,9.38
2023-02-08T06:13:41.278Z,11.88
2023-02-08T06:16:08.903Z,10.23
2023-02-08T06:18:36.040Z,11.95
2023-02-08T06:21:03.476Z,9.68
2023-02-08T06:23:30.934Z,8.98
2023-02-08T06:25:58.430Z,8.25
2023-02-08T06:28:26.264Z,11.13
2023-02-08T06:30:53.677Z,12.25
2023-02-08T06:33:20.954Z,8.50
2023-02-08T06:35:52.958Z,9.48
2023-02-08T06:38:20.953Z,6.63
2023-02-08T06:40:50.325Z,7.68
2023-02-08T06:43:18.309Z,8.60
2023-02-08T06:45:47.489Z,7.30
2023-02-08T06:48:16.165Z,8.45
2023-02-08T06:50:43.641Z,10.60
2023-02-08T06:53:11.104Z,8.52
2023-02-08T06:55:39.466Z,8.27
2023-02-08T06:58:08.223Z,6.68
2023-02-08T07:00:35.774Z,6.68
2023-02-08T07:03:03.044Z,9.85
2023-02-08T07:05:31.309Z,6.60
2023-02-08T07:07:58.516Z,9.10
2023-02-08T07:10:26.634Z,6.65
2023-02-08T07:12:54.041Z,7.90
2023-02-08T07:15:21.304Z,7.63
2023-02-08T07:17:48.607Z,8.52
2023-02-08T07:20:15.773Z,8.02
2023-02-08T07:22:43.113Z,9.65
2023-02-08T07:25:10.524Z,11.10
2023-02-08T07:27:38.156Z,8.73
2023-02-08T07:30:08.649Z,10.10
2023-02-08T07:32:36.344Z,10.95
2023-02-08T07:35:03.896Z,10.55
2023-02-08T07:37:33.259Z,8.15
2023-02-08T07:40:00.645Z,7.60
2023-02-08T07:42:27.805Z,10.52
2023-02-08T07:45:15.030Z,8.52
2023-02-08T07:47:42.305Z,9.38
2023-02-08T07:50:09.923Z,11.73
2023-02-08T07:52:37.168Z,12.10
2023-02-08T07:55:04.587Z,11.85
2023-02-08T07:57:32.221Z,14.40
2023-02-08T07:59:59.507Z,13.18
2023-02-08T08:02:26.933Z,24.67
2023-02-08T08:04:54.813Z,22.67
2023-02-08T08:07:22.130Z,22.88
2023-02-08T08:09:49.272Z,25.02
2023-02-08T08:12:16.960Z,31.35
2023-02-08T08:14:44.498Z,48.25
2023-02-08T08:17:12.281Z,48.33
2023-02-08T08:19:39.582Z,43.05
2023-02-08T08:22:06.827Z,40.08
2023-02-08T08:24:36.177Z,41.45
2023-02-08T08:27:04.990Z,40.20
2023-02-08T08:29:34.120Z,42.25
2023-02-08T08:32:01.277Z,36.05
2023-02-08T08:34:31.210Z,39.03
2023-02-08T08:37:00.591Z,37.15
2023-02-08T08:39:28.358Z,32.30
2023-02-08T08:42:00.484Z,32.05
2023-02-08T08:44:27.825Z,29.83
2023-02-08T08:46:57.518Z,24.88
2023-02-08T08:49:25.746Z,21.98
2023-02-08T08:51:53.021Z,26.55
2023-02-08T08:54:22.555Z,25.17
2023-02-08T08:56:50.060Z,22.67
2023-02-08T08:59:17.492Z,18.70
2023-02-08T09:01:44.916Z,16.65
2023-02-08T09:04:12.230Z,15.07
2023-02-08T09:06:39.641Z,14.13
2023-02-08T09:09:07.479Z,12.45
2023-02-08T09:11:35.031Z,15.35
2023-02-08T09:14:04.691Z,15.27
2023-02-08T09:16:32.912Z,12.55
2023-02-08T09:19:07.974Z,14.90
2023-02-08T09:21:36.684Z,14.02
2023-02-08T09:24:04.759Z,27.08
2023-02-08T09:26:32.560Z,27.20
2023-02-08T09:29:00.257Z,27.55
2023-02-08T09:31:33.463Z,19.45
2023-02-08T09:34:01.558Z,19.02
2023-02-08T09:36:32.921Z,16.83
2023-02-08T09:39:04.039Z,18.80
2023-02-08T09:42:02.681Z,14.80
2023-02-08T09:45:09.985Z,13.55
2023-02-08T09:47:43.437Z,14.88
2023-02-08T09:50:19.214Z,15.05
2023-02-08T09:53:04.722Z,13.45
2023-02-08T09:55:48.356Z,13.48
2023-02-08T09:58:40.322Z,13.82
2023-02-08T10:01:23.223Z,12.30
2023-02-08T10:03:53.751Z,14.77
2023-02-08T10:06:21.588Z,15.30
2023-02-08T10:08:51.948Z,14.20
2023-02-08T10:11:38.027Z,14.50
2023-02-08T10:14:37.629Z,12.07
2023-02-08T10:17:19.885Z,12.02
2023-02-08T10:19:50.133Z,10.10
2023-02-08T10:22:36.063Z,12.18
2023-02-08T10:25:37.781Z,13.80
2023-02-08T10:28:26.395Z,14.88
2023-02-08T10:31:25.951Z,10.85
2023-02-08T10:34:03.656Z,10.77
2023-02-08T10:36:42.224Z,12.27
2023-02-08T10:39:35.663Z,11.60
2023-02-08T10:42:05.143Z,12.93
2023-02-08T10:44:54.899Z,10.73
2023-02-08T10:47:49.293Z,10.70
2023-02-08T10:50:43.602Z,10.60
2023-02-08T10:53:20.787Z,14.50
2023-02-08T10:55:51.645Z,12.60
2023-02-08T10:58:21.785Z,12.05
2023-02-08T11:00:52.128Z,9.20
2023-02-08T11:03:27.918Z,10.82
2023-02-08T11:05:55.896Z,9.07
2023-02-08T11:08:25.894Z,9.15
2023-02-08T11:11:08.097Z,7.78
2023-02-08T11:13:48.473Z,7.88
2023-02-08T11:16:27.117Z,8.40
2023-02-08T11:18:57.459Z,9.90
2023-02-08T11:21:35.276Z,9.50
2023-02-08T11:24:19.125Z,8.23
2023-02-08T11:26:46.496Z,10.30
2023-02-08T11:29:23.904Z,8.43
2023-02-08T11:32:03.497Z,5.53
2023-02-08T11:34:36.535Z,5.00
2023-02-08T11:37:14.135Z,7.75
2023-02-08T11:39:49.963Z,5.95
2023-02-08T11:42:30.585Z,5.60
2023-02-08T11:45:00.049Z,5.60
2023-02-08T11:47:33.592Z,5.57
2023-02-08T11:50:04.609Z,5.28
2023-02-08T11:52:39.586Z,4.90
2023-02-08T11:55:19.067Z,5.93
2023-02-08T11:57:59.926Z,6.32
2023-02-08T12:00:36.658Z,7.18
2023-02-08T12:03:06.810Z,6.18
2023-02-08T12:06:09.939Z,6.57
2023-02-08T12:08:49.862Z,6.75
2023-02-08T12:11:43.308Z,6.90
2023-02-08T12:14:21.079Z,5.68
2023-02-08T12:17:30.234Z,6.85
2023-02-08T12:20:09.540Z,7.18
2023-02-08T12:22:42.267Z,6.03
2023-02-08T12:25:34.229Z,7.43
2023-02-08T12:28:49.324Z,6.40
2023-02-08T12:31:22.369Z,6.30
2023-02-08T12:33:56.063Z,5.57
2023-02-08T12:36:35.635Z,6.32
2023-02-08T12:39:57.532Z,9.40
2023-02-08T12:43:14.064Z,6.25
2023-02-08T12:45:52.460Z,6.22
2023-02-08T12:48:37.969Z,7.10
2023-02-08T12:51:30.221Z,6.70
2023-02-08T12:54:14.471Z,6.57
2023-02-08T12:56:53.618Z,6.20
2023-02-08T12:59:38.282Z,5.90
2023-02-08T13:02:44.796Z,6.20
2023-02-08T13:05:19.417Z,6.25
2023-02-08T13:07:50.919Z,8.45
2023-02-08T13:10:30.723Z,6.22
2023-02-08T13:13:05.484Z,5.90
2023-02-08T13:15:42.668Z,6.90
2023-02-08T13:18:24.797Z,7.78
2023-02-08T13:20:58.368Z,7.53
2023-02-08T13:23:33.414Z,8.18
2023-02-08T13:26:07.328Z,7.53
2023-02-08T13:28:35.642Z,10.23
2023-02-08T13:31:11.931Z,6.68
2023-02-08T13:34:06.390Z,8.77
2023-02-08T13:36:40.509Z,8.07
2023-02-08T13:39:24.597Z,6.75
2023-02-08T13:41:55.754Z,10.73
2023-02-08T13:44:36.078Z,7.72
2023-02-08T13:47:05.762Z,7.30
2023-02-08T13:49:43.657Z,7.68
2023-02-08T13:52:46.318Z,7.03
2023-02-08T13:58:08.406Z,7.53
2023-02-08T14:00:37.216Z,7.93
2023-02-08T14:03:23.262Z,7.88
2023-02-08T14:06:02.771Z,6.43
2023-02-08T14:08:57.517Z,8.63
2023-02-08T14:11:51.367Z,6.97
2023-02-08T14:14:27.156Z,6.20
2023-02-08T14:17:19.551Z,6.60
2023-02-08T14:19:59.264Z,5.80
2023-02-08T14:22:31.531Z,7.00
2023-02-08T14:25:19.188Z,6.20
2023-02-08T14:28:01.856Z,9.73
2023-02-08T14:30:39.015Z,9.83
2023-02-08T14:33:11.567Z,8.93
2023-02-08T14:35:51.296Z,8.47
2023-02-08T14:38:24.679Z,7.90
2023-02-08T14:43:20.521Z,8.30
2023-02-08T14:45:50.505Z,9.23
2023-02-08T14:48:30.469Z,10.98
2023-02-08T14:51:13.076Z,9.80
2023-02-08T14:53:44.681Z,8.05
2023-02-08T14:56:37.890Z,7.55
2023-02-08T14:59:14.160Z,8.57
2023-02-08T15:01:53.407Z,8.00
2023-02-08T15:04:21.179Z,7.00
2023-02-08T15:07:16.751Z,8.98
2023-02-08T15:09:45.699Z,10.02
2023-02-08T15:12:21.452Z,6.25
2023-02-08T15:14:49.460Z,9.27
2023-02-08T15:17:23.865Z,6.80
2023-02-08T15:19:52.800Z,5.53
2023-02-08T15:22:26.244Z,6.38
2023-02-08T15:25:02.580Z,6.32
2023-02-08T15:27:33.153Z,5.78
2023-02-08T15:30:01.073Z,6.90
2023-02-08T15:32:30.904Z,7.38
2023-02-08T15:35:03.349Z,7.22
2023-02-08T15:37:34.655Z,5.45
2023-02-08T15:40:05.397Z,6.97
2023-02-08T15:42:34.850Z,5.57
2023-02-08T15:45:03.473Z,8.70
2023-02-08T15:47:33.946Z,9.10
2023-02-08T15:50:02.519Z,6.03
2023-02-08T15:52:34.940Z,6.72
2023-02-08T15:55:02.879Z,6.85
2023-02-08T15:57:39.433Z,6.65
2023-02-08T16:00:30.623Z,5.18
2023-02-08T16:03:17.017Z,6.15
2023-02-08T16:05:52.673Z,8.18
2023-02-08T16:08:28.117Z,7.00
2023-02-08T16:11:13.296Z,6.60
2023-02-08T16:13:46.597Z,7.30
2023-02-08T16:16:17.496Z,6.13
2023-02-08T16:18:50.505Z,7.50
2023-02-08T16:21:40.392Z,6.68
2023-02-08T16:24:13.998Z,7.47
2023-02-08T16:26:51.312Z,10.23
2023-02-08T16:29:30.635Z,9.25
2023-02-08T16:32:09.339Z,7.15
2023-02-08T16:34:47.731Z,7.88
2023-02-08T16:37:26.966Z,7.45
2023-02-08T16:39:58.432Z,8.45
2023-02-08T16:42:37.456Z,9.20
2023-02-08T16:45:13.907Z,12.05
2023-02-08T16:47:45.219Z,11.35
2023-02-08T16:50:26.921Z,7.65
2023-02-08T16:53:03.096Z,9.43
2023-02-08T16:55:34.517Z,7.82
2023-02-08T16:58:05.863Z,8.15
2023-02-08T17:00:36.895Z,7.30
2023-02-08T17:03:05.766Z,9.00
2023-02-08T17:05:40.062Z,8.23
2023-02-08T17:08:18.109Z,7.63
2023-02-08T17:10:52.767Z,7.65
2023-02-08T17:13:26.137Z,7.50
2023-02-08T17:15:55.145Z,7.72
2023-02-08T17:18:22.971Z,8.82
2023-02-08T17:20:51.353Z,6.82
2023-02-08T17:23:19.364Z,8.82
2023-02-08T17:25:49.000Z,7.25
2023-02-08T17:28:19.186Z,6.38
2023-02-08T17:30:47.878Z,7.15
2023-02-08T17:33:20.950Z,8.43
2023-02-08T17:35:50.788Z,6.47
2023-02-08T17:38:19.864Z,6.97
2023-02-08T17:40:48.222Z,5.93
2023-02-08T17:43:15.605Z,6.63
2023-02-08T17:45:44.459Z,8.32
2023-02-08T17:48:15.934Z,6.47
2023-02-08T17:50:48.214Z,7.93
2023-02-08T17:53:16.134Z,9.80
2023-02-08T17:55:46.169Z,8.15
2023-02-08T17:58:14.076Z,8.88
2023-02-08T18:00:41.899Z,5.95
2023-02-08T18:03:09.569Z,6.75
2023-02-08T18:05:37.830Z,7.47
2023-02-08T18:08:05.283Z,9.00
2023-02-08T18:10:32.729Z,8.27
2023-02-08T18:13:00.827Z,7.55
2023-02-08T18:15:30.575Z,7.93
2023-02-08T18:18:01.524Z,8.27
2023-02-08T18:20:29.966Z,9.10
2023-02-08T18:22:58.170Z,8.88
2023-02-08T18:25:26.028Z,9.57
2023-02-08T18:27:54.545Z,7.40
2023-02-08T18:30:27.269Z,10.50
2023-02-08T18:32:55.090Z,9.77
2023-02-08T18:35:23.697Z,6.35
2023-02-08T18:37:55.145Z,8.25
2023-02-08T18:40:23.190Z,9.32
2023-02-08T18:42:50.979Z,9.15
2023-02-08T18:45:22.137Z,11.75
2023-02-08T18:47:50.601Z,11.48
2023-02-08T18:50:19.712Z,12.63
2023-02-08T18:52:48.282Z,10.23
2023-02-08T18:55:16.618Z,10.05
2023-02-08T18:57:48.935Z,11.90
2023-02-08T19:00:18.733Z,9.88
2023-02-08T19:02:47.414Z,13.93
2023-02-08T19:05:15.655Z,12.93
2023-02-08T19:07:43.606Z,11.02
2023-02-08T19:10:11.977Z,13.68
2023-02-08T19:12:44.005Z,11.88
2023-02-08T19:15:13.126Z,13.82
2023-02-08T19:17:44.275Z,11.63
2023-02-08T19:20:14.010Z,10.27
2023-02-08T19:22:43.003Z,12.00
2023-02-08T19:25:12.275Z,11.32
2023-02-08T19:27:43.161Z,11.63
2023-02-08T19:30:20.368Z,8.80
2023-02-08T19:32:54.544Z,10.02
2023-02-08T19:35:45.882Z,13.50
2023-02-08T19:38:36.276Z,12.45
2023-02-08T19:41:10.660Z,16.52
2023-02-08T19:43:51.159Z,28.88
2023-02-08T19:46:45.589Z,39.28
2023-02-08T19:49:23.164Z,39.63
2023-02-08T19:52:02.421Z,34.53
2023-02-08T19:54:54.936Z,36.38
2023-02-08T19:57:43.395Z,28.75
2023-02-08T20:00:24.216Z,22.85
2023-02-08T20:02:54.121Z,23.75
2023-02-08T20:05:24.387Z,19.88
2023-02-08T20:07:54.556Z,26.55
2023-02-08T20:10:24.061Z,25.08
2023-02-08T20:12:52.918Z,23.30
2023-02-08T20:15:26.286Z,17.48
2023-02-08T20:17:55.707Z,18.90
2023-02-08T20:20:25.529Z,29.08
2023-02-08T20:22:53.791Z,32.53
2023-02-08T20:25:28.362Z,26.02
2023-02-08T20:28:09.271Z,23.08
2023-02-08T20:30:47.896Z,17.80
2023-02-08T20:33:25.015Z,17.40
2023-02-08T20:37:00.911Z,18.63
2023-02-08T20:39:27.651Z,25.25
2023-02-08T20:41:58.257Z,37.38
2023-02-08T20:44:29.325Z,36.35
2023-02-08T20:46:57.969Z,40.30
2023-02-08T20:49:36.403Z,39.88
2023-02-08T20:52:05.772Z,42.75
2023-02-08T20:54:35.926Z,42.38
2023-02-08T20:59:37.227Z,40.95
2023-02-08T21:02:06.010Z,40.92
2023-02-08T21:04:45.537Z,36.53
2023-02-08T21:07:24.765Z,38.05
2023-02-08T21:09:52.957Z,38.83
2023-02-08T21:12:20.663Z,43.00
2023-02-08T21:14:52.926Z,39.03
2023-02-08T21:17:25.465Z,46.72
2023-02-08T21:19:54.679Z,45.50
2023-02-08T21:22:24.454Z,55.30
2023-02-08T21:25:03.296Z,72.63
2023-02-08T21:27:33.787Z,114.43
2023-02-08T21:30:02.675Z,118.88
2023-02-08T21:32:31.882Z,73.57
2023-02-08T21:35:04.830Z,47.55
2023-02-08T21:37:35.520Z,42.17
2023-02-08T21:40:11.125Z,30.38
2023-02-08T21:42:39.931Z,35.45
2023-02-08T21:45:09.723Z,36.63
2023-02-08T21:47:38.467Z,35.95
2023-02-08T21:50:27.958Z,40.90
2023-02-08T21:53:14.141Z,42.97
2023-02-08T21:55:48.906Z,43.80
2023-02-08T21:58:17.233Z,49.05
2023-02-08T22:00:56.726Z,66.45
2023-02-08T22:03:40.172Z,83.10
2023-02-08T22:06:33.422Z,91.78
2023-02-08T22:09:02.239Z,75.73
2023-02-08T22:11:31.485Z,55.85
2023-02-08T22:13:59.378Z,39.95
2023-02-08T22:16:27.443Z,35.75
2023-02-08T22:18:55.993Z,33.40
2023-02-08T22:21:24.068Z,79.47
2023-02-08T22:23:53.101Z,73.43
2023-02-08T22:26:20.738Z,64.53
2023-02-08T22:28:48.941Z,80.78
2023-02-08T22:31:18.047Z,52.95
2023-02-08T22:33:46.627Z,41.40
2023-02-08T22:36:17.969Z,31.60
2023-02-08T22:38:46.542Z,33.70
2023-02-08T22:41:17.600Z,34.47
2023-02-08T22:43:48.494Z,46.70
2023-02-08T22:46:17.924Z,54.40
2023-02-08T22:48:46.429Z,56.95
2023-02-08T22:51:21.560Z,53.05
2023-02-08T22:53:50.197Z,46.17
2023-02-08T22:56:20.338Z,57.67
2023-02-08T22:58:48.645Z,52.03
2023-02-08T23:01:21.963Z,51.65
2023-02-08T23:03:51.829Z,53.85
2023-02-08T23:06:21.281Z,71.95
2023-02-08T23:08:50.039Z,68.57
2023-02-08T23:11:18.955Z,52.25
2023-02-08T23:13:47.194Z,42.97
2023-02-08T23:16:18.573Z,49.88
2023-02-08T23:18:47.813Z,54.42
2023-02-08T23:21:19.351Z,57.38
2023-02-08T23:23:49.075Z,66.07
2023-02-08T23:26:22.028Z,58.70
2023-02-08T23:29:22.047Z,61.25
2023-02-08T23:31:51.311Z,59.40
2023-02-08T23:34:19.563Z,54.47
2023-02-08T23:36:47.932Z,48.70
2023-02-08T23:39:16.144Z,65.05
2023-02-08T23:41:45.958Z,59.50
2023-02-08T23:44:14.271Z,63.72
2023-02-08T23:46:42.552Z,51.45
2023-02-08T23:49:11.184Z,43.33
2023-02-08T23:51:39.068Z,42.00
2023-02-08T23:54:07.525Z,44.97
2023-02-08T23:56:37.548Z,37.97
2023-02-08T23:59:09.133Z,44.47
